createdAt,value
2023-05-22T00:02:04.688Z,5.00
2023-05-22T00:04:32.402Z,4.50
2023-05-22T00:07:00.003Z,4.07
2023-05-22T00:09:27.275Z,4.95
2023-05-22T00:11:54.579Z,3.88
2023-05-22T00:14:21.771Z,5.15
2023-05-22T00:16:49.063Z,3.95
2023-05-22T00:19:16.952Z,3.70
2023-05-22T00:21:45.250Z,4.93
2023-05-22T00:24:12.828Z,4.13
2023-05-22T00:26:40.129Z,4.20
2023-05-22T00:29:07.522Z,3.85
2023-05-22T00:31:34.987Z,3.67
2023-05-22T00:34:02.443Z,3.78
2023-05-22T00:36:29.878Z,4.53
2023-05-22T00:38:57.264Z,4.03
2023-05-22T00:41:24.944Z,3.90
2023-05-22T00:43:52.234Z,4.32
2023-05-22T00:46:21.780Z,4.03
2023-05-22T00:48:49.384Z,4.00
2023-05-22T00:51:16.766Z,4.18
2023-05-22T00:53:45.125Z,4.80
2023-05-22T00:56:13.155Z,4.60
2023-05-22T00:58:41.400Z,5.35
2023-05-22T01:01:11.589Z,4.15
2023-05-22T01:03:45.087Z,4.38
2023-05-22T01:06:21.561Z,4.43
2023-05-22T01:08:48.882Z,4.65
2023-05-22T01:11:28.419Z,4.55
2023-05-22T01:14:26.140Z,6.23
2023-05-22T01:17:13.747Z,3.85
2023-05-22T01:20:01.308Z,4.68
2023-05-22T01:23:00.227Z,3.50
2023-05-22T01:25:53.073Z,3.63
2023-05-22T01:28:42.372Z,3.78
2023-05-22T01:31:15.920Z,4.15
2023-05-22T01:33:48.951Z,3.75
2023-05-22T01:36:22.478Z,4.35
2023-05-22T01:38:51.400Z,3.63
2023-05-22T01:41:19.439Z,4.10
2023-05-22T01:43:48.177Z,3.70
2023-05-22T01:46:15.547Z,4.07
2023-05-22T01:48:42.910Z,3.70
2023-05-22T01:51:38.005Z,4.13
2023-05-22T01:54:39.316Z,4.15
2023-05-22T01:57:25.008Z,4.00
2023-05-22T02:00:12.112Z,3.97
2023-05-22T02:02:53.736Z,3.60
2023-05-22T02:05:23.456Z,3.10
2023-05-22T02:07:51.457Z,3.47
2023-05-22T02:10:20.584Z,4.63
2023-05-22T02:12:48.458Z,3.80
2023-05-22T02:15:16.865Z,4.45
2023-05-22T02:17:45.628Z,4.22
2023-05-22T02:20:15.940Z,4.53
2023-05-22T02:22:47.053Z,4.72
2023-05-22T02:25:17.207Z,4.85
2023-05-22T02:27:49.893Z,4.78
2023-05-22T02:30:17.437Z,5.00
2023-05-22T02:32:47.845Z,4.57
2023-05-22T02:35:15.122Z,4.93
2023-05-22T02:37:42.395Z,4.70
2023-05-22T02:40:10.608Z,5.22
2023-05-22T02:42:38.129Z,4.85
2023-05-22T02:45:06.816Z,4.95
2023-05-22T02:47:34.113Z,4.82
2023-05-22T02:50:01.604Z,4.43
2023-05-22T02:52:31.011Z,4.97
2023-05-22T02:54:58.371Z,4.15
2023-05-22T02:57:25.925Z,4.80
2023-05-22T02:59:54.194Z,4.47
2023-05-22T03:02:21.546Z,4.18
2023-05-22T03:04:49.051Z,3.97
2023-05-22T03:07:17.204Z,4.07
2023-05-22T03:09:44.512Z,4.40
2023-05-22T03:12:12.448Z,3.53
2023-05-22T03:14:39.779Z,3.45
2023-05-22T03:17:07.075Z,3.72
2023-05-22T03:19:34.530Z,3.65
2023-05-22T03:22:02.010Z,3.20
2023-05-22T03:24:30.632Z,3.88
2023-05-22T03:26:59.479Z,4.75
2023-05-22T03:29:36.541Z,3.90
2023-05-22T03:32:04.684Z,3.72
2023-05-22T03:34:32.442Z,2.83
2023-05-22T03:37:01.046Z,3.65
2023-05-22T03:39:28.496Z,3.42
2023-05-22T03:42:14.319Z,3.33
2023-05-22T03:44:41.631Z,3.47
2023-05-22T03:47:09.040Z,3.40
2023-05-22T03:49:36.323Z,4.03
2023-05-22T03:52:05.737Z,3.17
2023-05-22T03:54:33.009Z,3.38
2023-05-22T03:57:00.850Z,3.40
2023-05-22T03:59:28.110Z,2.65
2023-05-22T04:01:58.169Z,3.40
2023-05-22T04:04:27.018Z,3.70
2023-05-22T04:06:54.457Z,3.03
2023-05-22T04:09:21.834Z,4.00
2023-05-22T04:11:49.631Z,3.33
2023-05-22T04:14:16.959Z,2.83
2023-05-22T04:16:44.271Z,3.30
2023-05-22T04:19:12.571Z,4.30
2023-05-22T04:21:39.974Z,3.28
2023-05-22T04:24:09.601Z,4.15
2023-05-22T04:26:40.459Z,3.23
2023-05-22T04:29:10.739Z,3.78
2023-05-22T04:31:38.293Z,3.60
2023-05-22T04:34:06.429Z,4.22
2023-05-22T04:36:33.740Z,3.03
2023-05-22T04:39:05.074Z,3.40
2023-05-22T04:41:32.611Z,3.67
2023-05-22T04:44:00.466Z,3.47
2023-05-22T04:46:28.856Z,3.08
2023-05-22T04:48:56.527Z,3.60
2023-05-22T04:51:23.853Z,4.20
2023-05-22T04:53:52.101Z,3.72
2023-05-22T04:56:31.829Z,3.30
2023-05-22T04:59:04.905Z,3.78
2023-05-22T05:01:35.292Z,4.10
2023-05-22T05:04:03.998Z,3.72
2023-05-22T05:06:31.542Z,3.58
2023-05-22T05:08:58.841Z,3.50
2023-05-22T05:11:26.298Z,2.95
2023-05-22T05:13:53.590Z,3.63
2023-05-22T05:16:21.126Z,3.78
2023-05-22T05:18:48.431Z,4.25
2023-05-22T05:21:15.770Z,3.80
2023-05-22T05:23:43.209Z,3.80
2023-05-22T05:26:10.576Z,3.33
2023-05-22T05:28:38.297Z,4.15
2023-05-22T05:31:07.841Z,4.43
2023-05-22T05:33:58.398Z,4.30
2023-05-22T05:36:48.702Z,4.68
2023-05-22T05:39:17.530Z,4.32
2023-05-22T05:41:44.840Z,4.30
2023-05-22T05:44:12.296Z,4.53
2023-05-22T05:46:39.773Z,5.07
2023-05-22T05:49:12.123Z,4.97
2023-05-22T05:51:41.209Z,5.22
2023-05-22T05:54:08.869Z,6.43
2023-05-22T05:56:37.722Z,5.82
2023-05-22T05:59:05.509Z,5.28
2023-05-22T06:01:53.321Z,5.75
2023-05-22T06:04:25.607Z,4.75
2023-05-22T06:06:53.840Z,5.38
2023-05-22T06:09:36.459Z,4.60
2023-05-22T06:12:12.957Z,4.07
2023-05-22T06:14:43.991Z,5.80
2023-05-22T06:17:11.287Z,4.63
2023-05-22T06:19:41.241Z,5.45
2023-05-22T06:22:08.858Z,5.13
2023-05-22T06:24:38.220Z,4.90
2023-05-22T06:27:11.778Z,4.25
2023-05-22T06:29:39.144Z,5.25
2023-05-22T06:32:07.580Z,4.22
2023-05-22T06:37:05.925Z,4.55
2023-05-22T06:39:39.735Z,3.85
2023-05-22T06:42:11.853Z,4.22
2023-05-22T06:45:08.918Z,4.05
2023-05-22T06:47:46.662Z,4.10
2023-05-22T06:50:14.115Z,5.20
2023-05-22T06:52:41.983Z,4.30
2023-05-22T06:55:11.478Z,4.70
2023-05-22T06:57:51.623Z,5.10
2023-05-22T07:00:21.992Z,5.10
2023-05-22T07:03:12.640Z,5.28
2023-05-22T07:05:58.080Z,4.60
2023-05-22T07:08:28.369Z,5.45
2023-05-22T07:10:57.217Z,4.93
2023-05-22T07:13:25.067Z,5.20
2023-05-22T07:15:52.422Z,5.05
2023-05-22T07:18:19.752Z,5.30
2023-05-22T07:20:47.411Z,4.88
2023-05-22T07:23:18.651Z,4.82
2023-05-22T07:25:46.131Z,4.85
2023-05-22T07:28:15.322Z,5.00
2023-05-22T07:30:52.166Z,4.80
2023-05-22T07:33:19.793Z,4.80
2023-05-22T07:35:47.384Z,5.25
2023-05-22T07:38:14.860Z,5.35
2023-05-22T07:40:49.677Z,4.40
2023-05-22T07:43:17.559Z,4.30
2023-05-22T07:45:45.251Z,5.18
2023-05-22T07:48:15.334Z,5.22
2023-05-22T07:50:45.413Z,4.60
2023-05-22T07:53:12.947Z,4.60
2023-05-22T07:55:43.242Z,4.25
2023-05-22T07:58:10.928Z,4.53
2023-05-22T08:00:41.954Z,4.03
2023-05-22T08:03:09.372Z,4.47
2023-05-22T08:05:36.666Z,4.60
2023-05-22T08:08:04.829Z,4.28
2023-05-22T08:10:46.510Z,4.05
2023-05-22T08:13:16.904Z,4.00
2023-05-22T08:15:44.267Z,4.30
2023-05-22T08:18:11.875Z,3.67
2023-05-22T08:20:39.352Z,4.25
2023-05-22T08:23:06.982Z,3.97
2023-05-22T08:25:34.379Z,3.88
2023-05-22T08:28:01.663Z,3.75
2023-05-22T08:30:28.928Z,3.72
2023-05-22T08:32:56.386Z,3.97
2023-05-22T08:35:23.713Z,3.42
2023-05-22T08:37:51.092Z,3.60
2023-05-22T08:40:22.082Z,3.40
2023-05-22T08:42:54.403Z,3.47
2023-05-22T08:45:21.976Z,3.00
2023-05-22T08:47:55.356Z,3.53
2023-05-22T08:50:24.645Z,3.40
2023-05-22T08:52:52.930Z,3.70
2023-05-22T08:55:20.784Z,4.32
2023-05-22T08:57:49.539Z,4.35
2023-05-22T09:00:18.438Z,4.15
2023-05-22T09:02:47.097Z,3.92
2023-05-22T09:05:16.073Z,4.10
2023-05-22T09:07:43.816Z,3.50
2023-05-22T09:10:11.560Z,3.72
2023-05-22T09:12:38.954Z,4.57
2023-05-22T09:15:13.723Z,3.90
2023-05-22T09:17:41.544Z,4.15
2023-05-22T09:20:13.427Z,4.43
2023-05-22T09:22:40.765Z,4.00
2023-05-22T09:25:08.696Z,3.97
2023-05-22T09:27:36.467Z,4.07
2023-05-22T09:30:03.998Z,3.20
2023-05-22T09:32:31.629Z,3.70
2023-05-22T09:35:06.785Z,3.85
2023-05-22T09:37:35.875Z,3.25
2023-05-22T09:40:12.261Z,3.30
2023-05-22T09:42:39.563Z,3.78
2023-05-22T09:45:08.854Z,3.58
2023-05-22T09:47:36.395Z,3.78
2023-05-22T09:50:07.258Z,3.30
2023-05-22T09:52:37.301Z,3.50
2023-05-22T09:55:07.393Z,3.75
2023-05-22T09:57:45.157Z,3.53
2023-05-22T10:00:17.662Z,3.10
2023-05-22T10:02:50.960Z,3.40
2023-05-22T10:05:22.270Z,3.88
2023-05-22T10:08:01.773Z,3.67
2023-05-22T10:10:29.100Z,3.50
2023-05-22T10:13:05.234Z,3.30
2023-05-22T10:15:32.733Z,3.45
2023-05-22T10:18:00.774Z,3.50
2023-05-22T10:20:30.393Z,4.18
2023-05-22T10:22:57.894Z,3.38
2023-05-22T10:25:26.145Z,3.85
2023-05-22T10:27:55.003Z,3.08
2023-05-22T10:30:40.870Z,3.55
2023-05-22T10:33:39.962Z,3.58
2023-05-22T10:37:12.959Z,3.40
2023-05-22T10:40:12.019Z,3.15
2023-05-22T10:42:39.713Z,3.20
2023-05-22T10:45:10.999Z,3.50
2023-05-22T10:47:38.434Z,3.20
2023-05-22T10:50:11.247Z,3.05
2023-05-22T10:52:40.028Z,3.30
2023-05-22T10:55:11.836Z,3.30
2023-05-22T10:57:40.259Z,3.58
2023-05-22T11:00:15.196Z,3.15
2023-05-22T11:02:46.412Z,3.22
2023-05-22T11:05:21.746Z,3.33
2023-05-22T11:07:49.526Z,3.60
2023-05-22T11:10:27.260Z,3.63
2023-05-22T11:13:12.466Z,3.10
2023-05-22T11:15:45.849Z,3.40
2023-05-22T11:18:15.173Z,3.00
2023-05-22T11:20:43.992Z,3.70
2023-05-22T11:23:11.988Z,2.63
2023-05-22T11:25:42.184Z,3.20
2023-05-22T11:28:11.579Z,3.30
2023-05-22T11:30:39.954Z,3.38
2023-05-22T11:33:07.704Z,3.10
2023-05-22T11:35:35.685Z,3.30
2023-05-22T11:38:08.511Z,3.00
2023-05-22T11:40:35.957Z,2.97
2023-05-22T11:43:04.803Z,3.15
2023-05-22T11:45:32.189Z,3.25
2023-05-22T11:47:59.671Z,3.10
2023-05-22T11:50:41.144Z,2.92
2023-05-22T11:53:10.280Z,3.20
2023-05-22T11:55:37.704Z,3.20
2023-05-22T11:58:04.967Z,3.13
2023-05-22T12:00:32.657Z,2.60
2023-05-22T12:03:00.226Z,3.00
2023-05-22T12:05:27.878Z,2.85
2023-05-22T12:07:55.456Z,3.03
2023-05-22T12:10:22.994Z,2.80
2023-05-22T12:12:50.507Z,2.83
2023-05-22T12:15:21.310Z,3.10
2023-05-22T12:17:48.826Z,2.80
2023-05-22T12:20:16.614Z,3.08
2023-05-22T12:22:44.377Z,2.63
2023-05-22T12:25:20.433Z,2.85
2023-05-22T12:27:48.135Z,2.95
2023-05-22T12:30:16.777Z,3.20
2023-05-22T12:32:49.604Z,2.70
2023-05-22T12:35:18.124Z,2.45
2023-05-22T12:37:50.698Z,3.22
2023-05-22T12:40:18.485Z,2.80
2023-05-22T12:42:46.195Z,3.70
2023-05-22T12:45:14.094Z,2.40
2023-05-22T12:47:41.498Z,2.97
2023-05-22T12:50:09.369Z,2.75
2023-05-22T12:52:36.874Z,3.10
2023-05-22T12:55:04.756Z,2.17
2023-05-22T12:57:32.102Z,2.88
2023-05-22T12:59:59.426Z,2.83
2023-05-22T13:02:26.931Z,2.75
2023-05-22T13:04:54.329Z,2.72
2023-05-22T13:07:21.810Z,2.85
2023-05-22T13:09:49.175Z,2.70
2023-05-22T13:12:16.778Z,2.90
2023-05-22T13:14:44.195Z,3.08
2023-05-22T13:17:11.800Z,3.15
2023-05-22T13:19:39.252Z,2.90
2023-05-22T13:22:07.838Z,2.78
2023-05-22T13:24:35.220Z,3.17
2023-05-22T13:27:02.538Z,2.63
2023-05-22T13:29:30.089Z,2.88
2023-05-22T13:31:57.386Z,2.35
2023-05-22T13:34:25.061Z,2.90
2023-05-22T13:36:52.682Z,2.70
2023-05-22T13:39:20.046Z,2.70
2023-05-22T13:41:47.623Z,2.67
2023-05-22T13:44:14.979Z,2.47
2023-05-22T13:46:42.344Z,2.58
2023-05-22T13:49:09.650Z,2.67
2023-05-22T13:51:38.112Z,2.50
2023-05-22T13:54:05.645Z,2.80
2023-05-22T13:56:32.874Z,2.92
2023-05-22T13:59:00.444Z,2.80
2023-05-22T14:01:28.162Z,3.10
2023-05-22T14:03:55.535Z,2.60
2023-05-22T14:06:22.965Z,2.92
2023-05-22T14:08:50.570Z,2.47
2023-05-22T14:11:17.874Z,3.42
2023-05-22T14:13:45.264Z,3.10
2023-05-22T14:16:12.725Z,2.95
2023-05-22T14:18:40.272Z,3.28
2023-05-22T14:21:07.662Z,2.75
2023-05-22T14:23:35.144Z,2.92
2023-05-22T14:26:02.554Z,2.92
2023-05-22T14:28:31.882Z,2.78
2023-05-22T14:30:59.295Z,2.88
2023-05-22T14:33:26.643Z,2.78
2023-05-22T14:35:54.154Z,3.28
2023-05-22T14:38:21.388Z,2.88
2023-05-22T14:40:48.715Z,3.00
2023-05-22T14:43:16.193Z,3.10
2023-05-22T14:45:44.194Z,2.70
2023-05-22T14:48:12.891Z,3.03
2023-05-22T14:50:40.222Z,3.03
2023-05-22T14:53:07.605Z,3.10
2023-05-22T14:55:35.066Z,3.40
2023-05-22T14:58:02.361Z,2.75
2023-05-22T15:00:29.645Z,2.95
2023-05-22T15:02:57.265Z,3.15
2023-05-22T15:05:26.633Z,2.88
2023-05-22T15:07:54.679Z,3.00
2023-05-22T15:10:22.006Z,2.70
2023-05-22T15:12:49.338Z,2.53
2023-05-22T15:15:16.691Z,2.63
2023-05-22T15:17:44.188Z,3.40
2023-05-22T15:20:13.319Z,2.95
2023-05-22T15:22:40.727Z,3.55
2023-05-22T15:25:20.170Z,2.70
2023-05-22T15:27:47.530Z,2.95
2023-05-22T15:30:17.150Z,2.55
2023-05-22T15:32:44.928Z,3.38
2023-05-22T15:35:14.213Z,3.38
2023-05-22T15:37:41.934Z,3.10
2023-05-22T15:40:11.482Z,2.90
2023-05-22T15:42:38.928Z,2.35
2023-05-22T15:45:07.055Z,3.10
2023-05-22T15:47:34.470Z,2.80
2023-05-22T15:50:01.760Z,2.72
2023-05-22T15:52:29.096Z,3.50
2023-05-22T15:54:57.177Z,2.65
2023-05-22T15:57:26.962Z,2.85
2023-05-22T15:59:54.512Z,3.03
2023-05-22T16:02:22.026Z,2.75
2023-05-22T16:04:49.939Z,2.60
2023-05-22T16:07:20.387Z,2.90
2023-05-22T16:09:50.131Z,2.50
2023-05-22T16:12:18.212Z,3.20
2023-05-22T16:14:45.630Z,3.05
2023-05-22T16:17:12.911Z,2.80
2023-05-22T16:19:40.126Z,3.10
2023-05-22T16:22:07.516Z,3.22
2023-05-22T16:24:34.742Z,3.40
2023-05-22T16:27:02.178Z,3.33
2023-05-22T16:29:30.507Z,3.15
2023-05-22T16:31:57.814Z,2.85
2023-05-22T16:34:25.336Z,3.53
2023-05-22T16:36:52.648Z,2.78
2023-05-22T16:39:20.232Z,3.53
2023-05-22T16:41:47.628Z,2.78
2023-05-22T16:44:14.983Z,2.90
2023-05-22T16:46:42.317Z,3.10
2023-05-22T16:49:09.693Z,3.35
2023-05-22T16:51:37.100Z,3.05
2023-05-22T16:54:04.679Z,2.78
2023-05-22T16:56:34.065Z,3.08
2023-05-22T16:59:02.150Z,3.08
2023-05-22T17:01:29.680Z,3.00
2023-05-22T17:03:57.024Z,2.63
2023-05-22T17:06:24.573Z,2.63
2023-05-22T17:08:52.043Z,3.08
2023-05-22T17:11:19.415Z,3.20
2023-05-22T17:13:46.913Z,3.60
2023-05-22T17:16:14.382Z,2.92
2023-05-22T17:18:41.910Z,3.95
2023-05-22T17:21:09.469Z,3.10
2023-05-22T17:23:37.432Z,3.35
2023-05-22T17:26:05.230Z,2.88
2023-05-22T17:28:32.761Z,3.25
2023-05-22T17:31:00.727Z,3.45
2023-05-22T17:33:28.289Z,3.42
2023-05-22T17:35:55.686Z,3.15
2023-05-22T17:38:23.120Z,3.28
2023-05-22T17:40:52.030Z,3.30
2023-05-22T17:43:19.973Z,3.13
2023-05-22T17:45:50.615Z,3.13
2023-05-22T17:48:23.725Z,3.38
2023-05-22T17:50:52.206Z,3.65
2023-05-22T17:53:21.026Z,3.20
2023-05-22T17:55:50.185Z,3.17
2023-05-22T17:58:17.899Z,2.97
2023-05-22T18:00:46.708Z,3.13
2023-05-22T18:03:14.717Z,3.97
2023-05-22T18:05:43.667Z,3.72
2023-05-22T18:08:11.276Z,3.67
2023-05-22T18:10:38.804Z,3.83
2023-05-22T18:13:06.459Z,3.35
2023-05-22T18:15:33.724Z,4.13
2023-05-22T18:18:01.135Z,3.40
2023-05-22T18:20:28.391Z,3.15
2023-05-22T18:22:56.048Z,3.20
2023-05-22T18:25:23.491Z,3.72
2023-05-22T18:27:50.747Z,3.22
2023-05-22T18:30:18.540Z,3.70
2023-05-22T18:32:46.264Z,3.60
2023-05-22T18:35:13.695Z,3.00
2023-05-22T18:37:41.558Z,2.90
2023-05-22T18:40:10.999Z,4.13
2023-05-22T18:42:39.074Z,3.67
2023-05-22T18:45:07.895Z,3.38
2023-05-22T18:47:35.362Z,3.20
2023-05-22T18:50:04.430Z,3.67
2023-05-22T18:52:31.716Z,3.22
2023-05-22T18:54:59.043Z,3.28
2023-05-22T18:57:26.308Z,3.28
2023-05-22T18:59:53.652Z,3.55
2023-05-22T19:02:22.073Z,3.45
2023-05-22T19:04:50.869Z,3.05
2023-05-22T19:07:18.448Z,3.53
2023-05-22T19:09:46.033Z,4.50
2023-05-22T19:12:13.536Z,3.35
2023-05-22T19:14:40.843Z,3.40
2023-05-22T19:17:08.231Z,3.20
2023-05-22T19:19:35.726Z,3.53
2023-05-22T19:22:03.157Z,3.15
2023-05-22T19:24:31.223Z,3.22
2023-05-22T19:26:58.560Z,3.22
2023-05-22T19:29:26.066Z,2.92
2023-05-22T19:31:53.418Z,3.08
2023-05-22T19:34:20.986Z,3.83
2023-05-22T19:36:50.421Z,3.90
2023-05-22T19:39:17.907Z,3.60
2023-05-22T19:41:45.206Z,3.28
2023-05-22T19:44:12.719Z,3.63
2023-05-22T19:46:40.160Z,3.47
2023-05-22T19:49:07.506Z,3.70
2023-05-22T19:51:34.811Z,3.67
2023-05-22T19:54:02.215Z,3.53
2023-05-22T19:56:30.434Z,3.55
2023-05-22T19:58:57.888Z,3.80
2023-05-22T20:01:25.241Z,3.53
2023-05-22T20:03:54.833Z,4.28
2023-05-22T20:06:22.862Z,3.05
2023-05-22T20:08:50.316Z,3.67
2023-05-22T20:11:17.818Z,5.30
2023-05-22T20:13:45.133Z,3.72
2023-05-22T20:16:12.902Z,5.03
2023-05-22T20:18:41.266Z,3.55
2023-05-22T20:21:09.799Z,3.67
2023-05-22T20:23:37.395Z,4.00
2023-05-22T20:26:06.005Z,4.20
2023-05-22T20:28:33.364Z,4.40
2023-05-22T20:31:00.631Z,4.03
2023-05-22T20:33:28.407Z,4.10
2023-05-22T20:35:55.894Z,4.40
2023-05-22T20:38:23.388Z,4.30
2023-05-22T20:40:51.903Z,4.45
2023-05-22T20:43:20.263Z,4.15
2023-05-22T20:45:48.129Z,4.60
2023-05-22T20:48:16.750Z,4.43
2023-05-22T20:50:47.236Z,5.13
2023-05-22T20:55:42.783Z,4.30
2023-05-22T20:58:10.958Z,4.70
2023-05-22T21:00:41.687Z,4.47
2023-05-22T21:03:09.221Z,4.93
2023-05-22T21:05:36.793Z,4.35
2023-05-22T21:08:04.109Z,3.92
2023-05-22T21:10:31.448Z,4.32
2023-05-22T21:12:58.861Z,4.88
2023-05-22T21:15:26.402Z,4.97
2023-05-22T21:17:53.895Z,5.38
2023-05-22T21:20:21.386Z,4.25
2023-05-22T21:22:49.714Z,5.03
2023-05-22T21:25:17.341Z,5.10
2023-05-22T21:27:46.680Z,6.90
2023-05-22T21:30:15.236Z,11.50
2023-05-22T21:32:43.296Z,12.40
2023-05-22T21:35:10.751Z,12.55
2023-05-22T21:37:38.099Z,12.63
2023-05-22T21:40:06.396Z,9.90
2023-05-22T21:42:45.008Z,5.80
2023-05-22T21:45:14.548Z,5.47
2023-05-22T21:47:41.937Z,6.30
2023-05-22T21:50:10.028Z,6.60
2023-05-22T21:52:37.298Z,5.82
2023-05-22T21:55:05.085Z,7.53
2023-05-22T21:57:32.330Z,5.60
2023-05-22T21:59:59.661Z,5.97
2023-05-22T22:02:26.943Z,5.55
2023-05-22T22:04:54.325Z,5.10
2023-05-22T22:07:21.571Z,5.07
2023-05-22T22:09:49.749Z,5.45
2023-05-22T22:12:17.021Z,5.18
2023-05-22T22:14:44.321Z,6.20
2023-05-22T22:17:11.620Z,5.63
2023-05-22T22:19:40.246Z,6.25
2023-05-22T22:22:07.636Z,5.95
2023-05-22T22:24:34.984Z,6.07
2023-05-22T22:27:02.357Z,5.32
2023-05-22T22:29:29.636Z,5.75
2023-05-22T22:31:56.948Z,5.75
2023-05-22T22:34:24.449Z,5.03
2023-05-22T22:36:51.818Z,5.25
2023-05-22T22:39:19.075Z,5.07
2023-05-22T22:41:46.254Z,6.40
2023-05-22T22:44:14.013Z,5.18
2023-05-22T22:46:42.693Z,5.05
2023-05-22T22:49:10.278Z,5.85
2023-05-22T22:51:37.847Z,6.40
2023-05-22T22:54:05.478Z,5.30
2023-05-22T22:56:32.754Z,5.13
2023-05-22T22:59:00.019Z,5.18
2023-05-22T23:01:27.362Z,6.15
2023-05-22T23:03:54.789Z,5.32
2023-05-22T23:06:23.883Z,5.38
2023-05-22T23:08:51.241Z,5.13
2023-05-22T23:11:18.469Z,4.75
2023-05-22T23:13:45.978Z,5.15
2023-05-22T23:16:13.371Z,4.50
2023-05-22T23:18:40.835Z,5.35
2023-05-22T23:21:08.080Z,5.03
2023-05-22T23:23:35.398Z,5.45
2023-05-22T23:26:02.586Z,5.50
2023-05-22T23:28:29.942Z,5.63
2023-05-22T23:30:57.495Z,5.28
2023-05-22T23:33:24.729Z,5.45
2023-05-22T23:35:52.021Z,4.80
2023-05-22T23:38:19.404Z,5.53
2023-05-22T23:40:46.696Z,5.20
2023-05-22T23:43:13.989Z,5.18
2023-05-22T23:45:41.600Z,4.68
2023-05-22T23:48:09.078Z,5.30
2023-05-22T23:50:36.265Z,4.97
2023-05-22T23:53:04.080Z,5.60
2023-05-22T23:55:31.513Z,4.57
2023-05-22T23:57:58.690Z,4.35
